Aeroporto :
LOGIN :

Iscrizione | Disclaimer

   EN    FR    IT 

 










Sommario :    VFR   VFR Marginale   IFR   IFR Intensivo   IFR Molto Intensivo
Visibilità : 
Base nubi : 
>= 8 km
>= 3000ft
5 / 8 km
1000 / 3000 ft
1500m / 5 km
500 / 1000 ft
800 / 1500m
200 / 500 ft
< 800m
< 200 ft
Simboli :   Temporali  Nebbia  Neve Forte  Precipitazioni Forti  Vento > 20 kt
SIGMETs :   Varie  Temporali  Ghiacco  Turbolenza  Onda orograficha  Ceneri Vulcaniche






- Altitudine del aeroporto : 124 ft
- Codice IATA : NHT


EGWU - RAF Northolt

ULTIMO METAR :
  • 260750Z 18008KT 9999 SCT011 SCT070 07/06 Q1011 TEMPO FEW012 SCT025 RMK GRN TEMPO BLU

METARs OBSOLETI :
  • 260650Z AUTO 19004KT 9999 // BKN012/// SCT060/// 07/06 Q1011
  • 260550Z AUTO 19006KT 9999 // SCT019/// BKN060/// 07/06 Q1011
  • 260450Z AUTO 17007KT 8000 // SCT027/// BKN050/// 07/06 Q1011

TAF TAF EGWU
Valido dal 26 a 06 ore il 27 a 00 ore UTC


260450Z 2606/2624 19010KT 9999 BKN030
TEMPO 2606/2612 BKN012
PROB30
TEMPO 2606/2610 6000 -SHRA BR SCT006 BKN012
TEMPO 2612/2619 20015G25KT 4000 RA BKN009
PROB30
TEMPO 2619/2624 SCT007



MetMap, La meteo Aeronautica in un colpo d'occhio ! - Copyright ORBIFLY Dicembre 2007 - Disclaimer

ORBIFLY MET'MAP TEAM :

Programmazione e sviluppo : Alexandra Zaïnal
Concezione : Baudouin d'Aumeries
Aiuto per la programmazione : Marc-Olivier Méhu
Supporto tecnico e logistico : Manuel Goepfert
Aiuto per la traduzione : Arnaldo La Scala

Contatto : metmap@orbifly.com




FONTI E CREDITI :

   NOAA